sensor_id;sensor_type;location;lat;lon;timestamp;pressure;altitude;pressure_sealevel;temperature;humidity
74045;BME280;62389;51.412;5.436;2023-02-14T00:00:05;103360.28;;;2.50;83.11
74045;BME280;62389;51.412;5.436;2023-02-14T00:02:30;103366.38;;;2.52;83.11
74045;BME280;62389;51.412;5.436;2023-02-14T00:04:56;103364.69;;;2.53;83.96
74045;BME280;62389;51.412;5.436;2023-02-14T00:07:21;103356.91;;;2.51;83.11
74045;BME280;62389;51.412;5.436;2023-02-14T00:09:47;103356.78;;;2.48;82.87
74045;BME280;62389;51.412;5.436;2023-02-14T00:12:12;103356.78;;;2.48;82.92
74045;BME280;62389;51.412;5.436;2023-02-14T00:14:37;103363.63;;;2.46;83.15
74045;BME280;62389;51.412;5.436;2023-02-14T00:17:21;103356.69;;;2.45;82.71
74045;BME280;62389;51.412;5.436;2023-02-14T00:19:47;103350.66;;;2.45;82.01
74045;BME280;62389;51.412;5.436;2023-02-14T00:22:12;103350.47;;;2.39;81.73
74045;BME280;62389;51.412;5.436;2023-02-14T00:24:37;103349.41;;;2.32;82.04
74045;BME280;62389;51.412;5.436;2023-02-14T00:27:03;103352.72;;;2.28;82.48
74045;BME280;62389;51.412;5.436;2023-02-14T00:29:30;103352.53;;;2.22;82.45
74045;BME280;62389;51.412;5.436;2023-02-14T00:31:56;103345.72;;;2.24;81.10
74045;BME280;62389;51.412;5.436;2023-02-14T00:34:22;103351.44;;;2.15;82.05
74045;BME280;62389;51.412;5.436;2023-02-14T00:36:47;103351.38;;;2.12;83.03
74045;BME280;62389;51.412;5.436;2023-02-14T00:39:14;103346.06;;;2.07;82.78
74045;BME280;62389;51.412;5.436;2023-02-14T00:41:40;103337.34;;;2.04;82.31
74045;BME280;62389;51.412;5.436;2023-02-14T00:44:07;103341.53;;;2.00;82.56
74045;BME280;62389;51.412;5.436;2023-02-14T00:46:33;103339.78;;;1.99;82.52
74045;BME280;62389;51.412;5.436;2023-02-14T00:48:59;103339.69;;;1.96;82.90
74045;BME280;62389;51.412;5.436;2023-02-14T00:51:24;103344.00;;;1.96;82.88
74045;BME280;62389;51.412;5.436;2023-02-14T00:53:50;103339.59;;;1.93;82.81
74045;BME280;62389;51.412;5.436;2023-02-14T00:56:17;103328.28;;;1.90;82.44
74045;BME280;62389;51.412;5.436;2023-02-14T00:58:43;103335.78;;;1.82;82.46
74045;BME280;62389;51.412;5.436;2023-02-14T01:01:10;103339.22;;;1.81;83.77
74045;BME280;62389;51.412;5.436;2023-02-14T01:03:35;103333.94;;;1.78;83.46
74045;BME280;62389;51.412;5.436;2023-02-14T01:06:01;103336.47;;;1.76;84.17
74045;BME280;62389;51.412;5.436;2023-02-14T01:08:26;103337.22;;;1.74;82.98
74045;BME280;62389;51.412;5.436;2023-02-14T01:10:52;103336.25;;;1.70;82.72
74045;BME280;62389;51.412;5.436;2023-02-14T01:13:18;103343.91;;;1.67;83.36
74045;BME280;62389;51.412;5.436;2023-02-14T01:15:46;103334.31;;;1.63;83.17
74045;BME280;62389;51.412;5.436;2023-02-14T01:18:12;103336.06;;;1.64;83.86
74045;BME280;62389;51.412;5.436;2023-02-14T01:20:38;103333.53;;;1.66;83.54
74045;BME280;62389;51.412;5.436;2023-02-14T01:23:04;103336.06;;;1.64;83.21
74045;BME280;62389;51.412;5.436;2023-02-14T01:25:29;103335.06;;;1.61;82.85
74045;BME280;62389;51.412;5.436;2023-02-14T01:27:54;103341.84;;;1.57;82.83
74045;BME280;62389;51.412;5.436;2023-02-14T01:30:21;103346.06;;;1.55;83.36
74045;BME280;62389;51.412;5.436;2023-02-14T01:32:46;103341.78;;;1.55;84.07
74045;BME280;62389;51.412;5.436;2023-02-14T01:35:12;103338.44;;;1.58;84.23
74045;BME280;62389;51.412;5.436;2023-02-14T01:37:38;103343.59;;;1.58;84.24
74045;BME280;62389;51.412;5.436;2023-02-14T01:40:06;103340.00;;;1.53;84.49
74045;BME280;62389;51.412;5.436;2023-02-14T01:42:33;103343.28;;;1.49;84.71
74045;BME280;62389;51.412;5.436;2023-02-14T01:45:08;103349.16;;;1.45;84.95
74045;BME280;62389;51.412;5.436;2023-02-14T01:47:40;103343.78;;;1.39;84.20
74045;BME280;62389;51.412;5.436;2023-02-14T01:50:13;103341.94;;;1.35;84.27
74045;BME280;62389;51.412;5.436;2023-02-14T01:55:46;103349.75;;;1.36;83.47
74045;BME280;62389;51.412;5.436;2023-02-14T01:58:14;103347.88;;;1.32;83.37
74045;BME280;62389;51.412;5.436;2023-02-14T02:00:43;103342.59;;;1.29;83.87
74045;BME280;62389;51.412;5.436;2023-02-14T02:03:22;103352.00;;;1.27;83.54
74045;BME280;62389;51.412;5.436;2023-02-14T02:05:51;103345.00;;;1.24;83.70
74045;BME280;62389;51.412;5.436;2023-02-14T02:08:17;103335.38;;;1.19;83.94
74045;BME280;62389;51.412;5.436;2023-02-14T02:10:43;103337.94;;;1.19;83.77
74045;BME280;62389;51.412;5.436;2023-02-14T02:13:15;103330.13;;;1.16;83.81
74045;BME280;62389;51.412;5.436;2023-02-14T02:18:55;103330.75;;;1.10;83.66
74045;BME280;62389;51.412;5.436;2023-02-14T02:24:10;103327.22;;;1.07;83.94
74045;BME280;62389;51.412;5.436;2023-02-14T02:27:15;103325.47;;;1.06;84.25
74045;BME280;62389;51.412;5.436;2023-02-14T02:32:49;103320.03;;;0.98;84.06
74045;BME280;62389;51.412;5.436;2023-02-14T02:35:44;103315.72;;;0.97;83.76
74045;BME280;62389;51.412;5.436;2023-02-14T02:41:36;103315.59;;;0.94;84.54
74045;BME280;62389;51.412;5.436;2023-02-14T02:58:38;103309.00;;;0.78;84.49
74045;BME280;62389;51.412;5.436;2023-02-14T03:01:11;103302.94;;;0.76;84.77
74045;BME280;62389;51.412;5.436;2023-02-14T03:03:39;103315.69;;;0.73;84.28
74045;BME280;62389;51.412;5.436;2023-02-14T03:06:23;103312.19;;;0.71;84.56
74045;BME280;62389;51.412;5.436;2023-02-14T03:08:49;103318.09;;;0.68;84.66
74045;BME280;62389;51.412;5.436;2023-02-14T03:11:14;103313.66;;;0.64;84.53
74045;BME280;62389;51.412;5.436;2023-02-14T03:14:03;103310.28;;;0.65;84.53
74045;BME280;62389;51.412;5.436;2023-02-14T03:16:35;103322.22;;;0.63;84.77
74045;BME280;62389;51.412;5.436;2023-02-14T03:19:31;103326.47;;;0.63;83.96
74045;BME280;62389;51.412;5.436;2023-02-14T03:23:26;103327.19;;;0.59;84.57
74045;BME280;62389;51.412;5.436;2023-02-14T03:30:57;103333.13;;;0.56;84.63
74045;BME280;62389;51.412;5.436;2023-02-14T03:33:31;103326.13;;;0.54;84.97
74045;BME280;62389;51.412;5.436;2023-02-14T03:36:05;103331.28;;;0.54;84.96
74045;BME280;62389;51.412;5.436;2023-02-14T03:38:38;103336.34;;;0.50;84.80
74045;BME280;62389;51.412;5.436;2023-02-14T03:41:16;103334.50;;;0.48;85.04
74045;BME280;62389;51.412;5.436;2023-02-14T03:43:47;103336.97;;;0.45;84.93
74045;BME280;62389;51.412;5.436;2023-02-14T03:46:17;103333.47;;;0.43;85.17
74045;BME280;62389;51.412;5.436;2023-02-14T03:48:44;103336.81;;;0.40;85.46
74045;BME280;62389;51.412;5.436;2023-02-14T03:51:11;103336.72;;;0.39;85.47
74045;BME280;62389;51.412;5.436;2023-02-14T03:53:38;103334.34;;;0.43;84.20
74045;BME280;62389;51.412;5.436;2023-02-14T03:56:17;103335.13;;;0.41;86.01
74045;BME280;62389;51.412;5.436;2023-02-14T03:58:49;103335.16;;;0.42;85.76
74045;BME280;62389;51.412;5.436;2023-02-14T04:01:24;103331.66;;;0.40;85.62
74045;BME280;62389;51.412;5.436;2023-02-14T04:03:54;103332.47;;;0.39;85.34
74045;BME280;62389;51.412;5.436;2023-02-14T04:06:21;103334.09;;;0.37;85.83
74045;BME280;62389;51.412;5.436;2023-02-14T04:08:47;103329.78;;;0.36;86.38
74045;BME280;62389;51.412;5.436;2023-02-14T04:11:12;103330.59;;;0.35;87.13
74045;BME280;62389;51.412;5.436;2023-02-14T04:13:38;103328.78;;;0.33;87.08
74045;BME280;62389;51.412;5.436;2023-02-14T04:16:04;103327.84;;;0.31;86.56
74045;BME280;62389;51.412;5.436;2023-02-14T04:18:29;103328.72;;;0.31;86.15
74045;BME280;62389;51.412;5.436;2023-02-14T04:21:13;103333.94;;;0.33;86.13
74045;BME280;62389;51.412;5.436;2023-02-14T04:23:39;103329.66;;;0.33;85.25
74045;BME280;62389;51.412;5.436;2023-02-14T04:26:04;103333.06;;;0.32;85.17
74045;BME280;62389;51.412;5.436;2023-02-14T04:28:30;103329.53;;;0.30;86.00
74045;BME280;62389;51.412;5.436;2023-02-14T04:30:56;103328.59;;;0.28;85.77
74045;BME280;62389;51.412;5.436;2023-02-14T04:33:24;103320.84;;;0.27;85.62
74045;BME280;62389;51.412;5.436;2023-02-14T04:35:49;103327.69;;;0.26;85.76
74045;BME280;62389;51.412;5.436;2023-02-14T04:38:15;103325.91;;;0.25;85.76
74045;BME280;62389;51.412;5.436;2023-02-14T04:40:40;103327.53;;;0.23;85.28
74045;BME280;62389;51.412;5.436;2023-02-14T04:43:06;103323.09;;;0.19;85.56
74045;BME280;62389;51.412;5.436;2023-02-14T04:45:32;103327.41;;;0.20;85.69
74045;BME280;62389;51.412;5.436;2023-02-14T04:47:57;103321.41;;;0.19;85.89
74045;BME280;62389;51.412;5.436;2023-02-14T04:50:23;103317.94;;;0.19;85.68
74045;BME280;62389;51.412;5.436;2023-02-14T04:52:50;103320.53;;;0.19;85.73
74045;BME280;62389;51.412;5.436;2023-02-14T04:55:15;103313.63;;;0.18;86.22
74045;BME280;62389;51.412;5.436;2023-02-14T04:57:41;103316.19;;;0.18;86.11
74045;BME280;62389;51.412;5.436;2023-02-14T05:00:08;103317.06;;;0.18;86.21
74045;BME280;62389;51.412;5.436;2023-02-14T05:02:33;103311.06;;;0.18;86.25
74045;BME280;62389;51.412;5.436;2023-02-14T05:04:59;103306.72;;;0.17;86.08
74045;BME280;62389;51.412;5.436;2023-02-14T05:07:24;103308.34;;;0.15;86.57
74045;BME280;62389;51.412;5.436;2023-02-14T05:09:49;103310.03;;;0.14;86.54
74045;BME280;62389;51.412;5.436;2023-02-14T05:12:15;103300.63;;;0.15;86.87
74045;BME280;62389;51.412;5.436;2023-02-14T05:14:41;103304.03;;;0.14;87.56
74045;BME280;62389;51.412;5.436;2023-02-14T05:17:06;103296.31;;;0.14;86.51
74045;BME280;62389;51.412;5.436;2023-02-14T05:19:31;103294.56;;;0.13;86.16
74045;BME280;62389;51.412;5.436;2023-02-14T05:21:57;103293.63;;;0.11;86.09
74045;BME280;62389;51.412;5.436;2023-02-14T05:24:22;103299.53;;;0.08;86.29
74045;BME280;62389;51.412;5.436;2023-02-14T05:26:48;103286.59;;;0.07;86.16
74045;BME280;62389;51.412;5.436;2023-02-14T05:29:13;103284.84;;;0.06;86.73
74045;BME280;62389;51.412;5.436;2023-02-14T05:31:38;103290.88;;;0.06;86.93
74045;BME280;62389;51.412;5.436;2023-02-14T05:34:04;103291.69;;;0.05;86.21
74045;BME280;62389;51.412;5.436;2023-02-14T05:36:29;103290.78;;;0.05;86.42
74045;BME280;62389;51.412;5.436;2023-02-14T05:38:55;103286.47;;;0.04;86.25
74045;BME280;62389;51.412;5.436;2023-02-14T05:41:20;103296.66;;;0.01;85.91
74045;BME280;62389;51.412;5.436;2023-02-14T05:43:45;103298.28;;;-0.02;86.31
74045;BME280;62389;51.412;5.436;2023-02-14T05:46:11;103299.09;;;-0.03;86.57
74045;BME280;62389;51.412;5.436;2023-02-14T05:48:36;103288.88;;;-0.01;86.55
74045;BME280;62389;51.412;5.436;2023-02-14T05:51:03;103285.50;;;0.00;86.70
74045;BME280;62389;51.412;5.436;2023-02-14T05:53:29;103281.97;;;-0.02;86.89
74045;BME280;62389;51.412;5.436;2023-02-14T05:55:54;103285.38;;;-0.03;86.31
74045;BME280;62389;51.412;5.436;2023-02-14T05:58:20;103292.22;;;-0.04;86.90
74045;BME280;62389;51.412;5.436;2023-02-14T06:00:45;103291.25;;;-0.06;86.50
74045;BME280;62389;51.412;5.436;2023-02-14T06:03:11;103295.53;;;-0.06;86.84
74045;BME280;62389;51.412;5.436;2023-02-14T06:05:36;103288.56;;;-0.09;86.33
74045;BME280;62389;51.412;5.436;2023-02-14T06:08:01;103296.16;;;-0.12;86.65
74045;BME280;62389;51.412;5.436;2023-02-14T06:10:27;103297.88;;;-0.12;86.56
74045;BME280;62389;51.412;5.436;2023-02-14T06:12:53;103296.06;;;-0.15;86.60
74045;BME280;62389;51.412;5.436;2023-02-14T06:15:18;103295.09;;;-0.17;87.01
74045;BME280;62389;51.412;5.436;2023-02-14T06:17:44;103298.50;;;-0.18;86.76
74045;BME280;62389;51.412;5.436;2023-02-14T06:20:09;103303.69;;;-0.16;86.64
74045;BME280;62389;51.412;5.436;2023-02-14T06:22:36;103306.28;;;-0.16;87.22
74045;BME280;62389;51.412;5.436;2023-02-14T06:25:02;103303.69;;;-0.16;86.94
74045;BME280;62389;51.412;5.436;2023-02-14T06:27:29;103301.06;;;-0.18;86.99
74045;BME280;62389;51.412;5.436;2023-02-14T06:29:54;103301.06;;;-0.18;86.94
74045;BME280;62389;51.412;5.436;2023-02-14T06:32:20;103308.75;;;-0.19;87.20
74045;BME280;62389;51.412;5.436;2023-02-14T06:34:45;103305.34;;;-0.18;87.94
74045;BME280;62389;51.412;5.436;2023-02-14T06:37:10;103305.34;;;-0.18;87.88
74045;BME280;62389;51.412;5.436;2023-02-14T06:39:36;103307.88;;;-0.20;88.03
74045;BME280;62389;51.412;5.436;2023-02-14T06:42:01;103311.22;;;-0.21;87.37
74045;BME280;62389;51.412;5.436;2023-02-14T06:44:27;103310.34;;;-0.21;86.87
74045;BME280;62389;51.412;5.436;2023-02-14T06:46:52;103309.47;;;-0.22;87.51
74045;BME280;62389;51.412;5.436;2023-02-14T06:49:17;103306.84;;;-0.23;87.49
74045;BME280;62389;51.412;5.436;2023-02-14T06:51:43;103315.44;;;-0.23;87.26
74045;BME280;62389;51.412;5.436;2023-02-14T06:54:08;103306.03;;;-0.22;87.42
74045;BME280;62389;51.412;5.436;2023-02-14T06:56:33;103305.97;;;-0.24;86.87
74045;BME280;62389;51.412;5.436;2023-02-14T06:58:59;103306.84;;;-0.23;87.29
74045;BME280;62389;51.412;5.436;2023-02-14T07:01:24;103315.44;;;-0.23;87.01
74045;BME280;62389;51.412;5.436;2023-02-14T07:03:49;103309.38;;;-0.25;87.24
74045;BME280;62389;51.412;5.436;2023-02-14T07:06:15;103302.59;;;-0.23;87.99
74045;BME280;62389;51.412;5.436;2023-02-14T07:08:40;103307.88;;;-0.20;88.07
74045;BME280;62389;51.412;5.436;2023-02-14T07:11:06;103309.66;;;-0.17;87.58
74045;BME280;62389;51.412;5.436;2023-02-14T07:13:32;103316.50;;;-0.18;87.27
74045;BME280;62389;51.412;5.436;2023-02-14T07:15:57;103319.91;;;-0.19;87.13
74045;BME280;62389;51.412;5.436;2023-02-14T07:18:23;103323.34;;;-0.18;87.64
74045;BME280;62389;51.412;5.436;2023-02-14T07:20:49;103319.94;;;-0.17;87.34
74045;BME280;62389;51.412;5.436;2023-02-14T07:23:14;103321.78;;;-0.15;87.32
74045;BME280;62389;51.412;5.436;2023-02-14T07:25:41;103325.28;;;-0.13;87.82
74045;BME280;62389;51.412;5.436;2023-02-14T07:28:06;103315.88;;;-0.12;87.81
74045;BME280;62389;51.412;5.436;2023-02-14T07:30:32;103317.75;;;-0.08;87.70
74045;BME280;62389;51.412;5.436;2023-02-14T07:32:57;103321.38;;;-0.03;88.48
74045;BME280;62389;51.412;5.436;2023-02-14T07:35:23;103319.81;;;0.01;88.69
74045;BME280;62389;51.412;5.436;2023-02-14T07:37:49;103320.00;;;0.05;88.35
74045;BME280;62389;51.412;5.436;2023-02-14T07:40:15;103318.41;;;0.09;87.81
74045;BME280;62389;51.412;5.436;2023-02-14T07:42:41;103316.88;;;0.14;88.22
74045;BME280;62389;51.412;5.436;2023-02-14T07:45:06;103320.53;;;0.19;87.82
74045;BME280;62389;51.412;5.436;2023-02-14T07:47:32;103321.53;;;0.22;88.25
74045;BME280;62389;51.412;5.436;2023-02-14T07:49:57;103320.06;;;0.29;88.16
74045;BME280;62389;51.412;5.436;2023-02-14T07:52:22;103323.22;;;0.44;88.47
74045;BME280;62389;51.412;5.436;2023-02-14T07:54:48;103321.22;;;0.60;88.48
74045;BME280;62389;51.412;5.436;2023-02-14T07:57:13;103314.66;;;0.68;87.86
74045;BME280;62389;51.412;5.436;2023-02-14T07:59:39;103313.91;;;0.70;87.91
74045;BME280;62389;51.412;5.436;2023-02-14T08:02:04;103303.66;;;0.72;87.83
74045;BME280;62389;51.412;5.436;2023-02-14T08:04:29;103304.56;;;0.74;87.74
74045;BME280;62389;51.412;5.436;2023-02-14T08:06:55;103305.50;;;0.76;88.42
74045;BME280;62389;51.412;5.436;2023-02-14T08:09:21;103308.13;;;0.77;88.37
74045;BME280;62389;51.412;5.436;2023-02-14T08:11:56;103308.31;;;0.82;88.53
74045;BME280;62389;51.412;5.436;2023-02-14T08:14:41;103303.50;;;0.91;88.79
74045;BME280;62389;51.412;5.436;2023-02-14T08:17:07;103294.25;;;0.98;88.54
74045;BME280;62389;51.412;5.436;2023-02-14T08:19:35;103301.38;;;1.05;88.81
74045;BME280;62389;51.412;5.436;2023-02-14T08:22:01;103306.69;;;1.10;88.57
74045;BME280;62389;51.412;5.436;2023-02-14T08:24:26;103303.53;;;1.17;88.96
74045;BME280;62389;51.412;5.436;2023-02-14T08:26:52;103297.19;;;1.33;89.29
74045;BME280;62389;51.412;5.436;2023-02-14T08:29:17;103303.53;;;1.69;88.54
74045;BME280;62389;51.412;5.436;2023-02-14T08:31:43;103294.97;;;1.97;88.06
74045;BME280;62389;51.412;5.436;2023-02-14T08:34:09;103300.97;;;2.25;88.96
74045;BME280;62389;51.412;5.436;2023-02-14T08:36:34;103290.22;;;3.33;87.68
74045;BME280;62389;51.412;5.436;2023-02-14T08:39:02;103298.97;;;4.95;83.90
74045;BME280;62389;51.412;5.436;2023-02-14T08:41:28;103295.63;;;6.70;79.33
74045;BME280;62389;51.412;5.436;2023-02-14T08:43:53;103281.44;;;8.51;72.46
74045;BME280;62389;51.412;5.436;2023-02-14T08:46:19;103287.66;;;10.07;68.52
74045;BME280;62389;51.412;5.436;2023-02-14T08:48:44;103286.50;;;10.79;64.28
74045;BME280;62389;51.412;5.436;2023-02-14T08:51:14;103286.81;;;10.01;65.19
74045;BME280;62389;51.412;5.436;2023-02-14T08:53:41;103277.25;;;9.23;68.41
74045;BME280;62389;51.412;5.436;2023-02-14T08:56:09;103280.59;;;8.55;68.47
74045;BME280;62389;51.412;5.436;2023-02-14T08:58:35;103283.66;;;7.81;70.60
74045;BME280;62389;51.412;5.436;2023-02-14T09:01:06;103283.16;;;7.22;75.57
74045;BME280;62389;51.412;5.436;2023-02-14T09:03:32;103291.41;;;6.80;75.46
74045;BME280;62389;51.412;5.436;2023-02-14T09:06:02;103294.41;;;6.41;76.90
74045;BME280;62389;51.412;5.436;2023-02-14T09:08:28;103295.72;;;6.10;78.32
74045;BME280;62389;51.412;5.436;2023-02-14T09:10:55;103292.75;;;5.87;79.39
74045;BME280;62389;51.412;5.436;2023-02-14T09:13:20;103296.88;;;5.72;79.41
74045;BME280;62389;51.412;5.436;2023-02-14T09:15:46;103299.22;;;5.57;80.41
74045;BME280;62389;51.412;5.436;2023-02-14T09:18:11;103290.41;;;5.48;81.14
74045;BME280;62389;51.412;5.436;2023-02-14T09:20:36;103285.94;;;5.39;81.41
74045;BME280;62389;51.412;5.436;2023-02-14T09:23:02;103295.22;;;5.26;82.19
74045;BME280;62389;51.412;5.436;2023-02-14T09:25:27;103296.84;;;5.21;82.38
74045;BME280;62389;51.412;5.436;2023-02-14T09:27:52;103295.94;;;5.17;83.03
74045;BME280;62389;51.412;5.436;2023-02-14T09:30:18;103289.06;;;5.19;83.09
74045;BME280;62389;51.412;5.436;2023-02-14T09:32:43;103298.63;;;5.22;83.11
74045;BME280;62389;51.412;5.436;2023-02-14T09:35:09;103289.94;;;5.22;83.51
74045;BME280;62389;51.412;5.436;2023-02-14T09:37:53;103287.41;;;5.25;83.75
74045;BME280;62389;51.412;5.436;2023-02-14T09:40:19;103284.06;;;5.30;83.28
74045;BME280;62389;51.412;5.436;2023-02-14T09:42:59;103278.94;;;5.35;83.55
74045;BME280;62389;51.412;5.436;2023-02-14T09:45:28;103281.63;;;5.39;83.70
74045;BME280;62389;51.412;5.436;2023-02-14T09:48:07;103277.47;;;5.49;84.27
74045;BME280;62389;51.412;5.436;2023-02-14T09:50:45;103288.09;;;5.64;84.16
74045;BME280;62389;51.412;5.436;2023-02-14T09:55:47;103275.41;;;5.86;83.59
74045;BME280;62389;51.412;5.436;2023-02-14T09:58:21;103287.78;;;6.01;83.99
74045;BME280;62389;51.412;5.436;2023-02-14T10:03:42;103263.25;;;8.72;79.27
74045;BME280;62389;51.412;5.436;2023-02-14T10:06:25;103261.25;;;10.73;72.35
74045;BME280;62389;51.412;5.436;2023-02-14T10:12:25;103247.44;;;13.04;68.19
74045;BME280;62389;51.412;5.436;2023-02-14T10:14:55;103255.59;;;13.92;61.16
74045;BME280;62389;51.412;5.436;2023-02-14T10:17:35;103248.41;;;14.43;62.29
74045;BME280;62389;51.412;5.436;2023-02-14T10:20:09;103244.50;;;14.21;55.47
74045;BME280;62389;51.412;5.436;2023-02-14T10:22:44;103247.47;;;13.58;59.11
74045;BME280;62389;51.412;5.436;2023-02-14T10:25:35;103248.09;;;13.18;60.78
74045;BME280;62389;51.412;5.436;2023-02-14T10:28:04;103238.44;;;12.63;60.77
74045;BME280;62389;51.412;5.436;2023-02-14T10:30:37;103247.47;;;12.42;62.92
74045;BME280;62389;51.412;5.436;2023-02-14T10:33:14;103245.22;;;12.11;60.45
74045;BME280;62389;51.412;5.436;2023-02-14T10:35:48;103243.78;;;11.86;64.59
74045;BME280;62389;51.412;5.436;2023-02-14T10:41:04;103239.38;;;11.88;63.50
74045;BME280;62389;51.412;5.436;2023-02-14T10:46:10;103228.84;;;11.89;62.89
74045;BME280;62389;51.412;5.436;2023-02-14T10:53:59;103225.41;;;11.86;61.25
74045;BME280;62389;51.412;5.436;2023-02-14T10:56:37;103220.94;;;11.96;63.06
74045;BME280;62389;51.412;5.436;2023-02-14T10:59:23;103218.22;;;12.03;61.14
74045;BME280;62389;51.412;5.436;2023-02-14T11:01:51;103218.34;;;11.92;58.79
74045;BME280;62389;51.412;5.436;2023-02-14T11:04:19;103218.44;;;11.83;60.52
74045;BME280;62389;51.412;5.436;2023-02-14T11:06:46;103221.94;;;11.79;62.04
74045;BME280;62389;51.412;5.436;2023-02-14T11:09:14;103214.06;;;11.81;60.69
74045;BME280;62389;51.412;5.436;2023-02-14T11:14:30;103203.38;;;12.01;60.64
74045;BME280;62389;51.412;5.436;2023-02-14T11:16:58;103204.50;;;11.77;59.51
74045;BME280;62389;51.412;5.436;2023-02-14T11:19:25;103203.69;;;11.68;62.49
74045;BME280;62389;51.412;5.436;2023-02-14T11:21:53;103201.91;;;11.72;61.07
74045;BME280;62389;51.412;5.436;2023-02-14T11:24:37;103196.66;;;11.74;63.84
74045;BME280;62389;51.412;5.436;2023-02-14T11:32:25;103191.28;;;11.90;62.02
74045;BME280;62389;51.412;5.436;2023-02-14T11:35:04;103186.97;;;11.85;61.33
74045;BME280;62389;51.412;5.436;2023-02-14T11:37:36;103187.78;;;11.88;61.55
74045;BME280;62389;51.412;5.436;2023-02-14T11:40:05;103174.53;;;12.01;62.64
74045;BME280;62389;51.412;5.436;2023-02-14T11:44:58;103181.28;;;12.20;61.81
74045;BME280;62389;51.412;5.436;2023-02-14T11:47:29;103175.97;;;12.23;59.39
74045;BME280;62389;51.412;5.436;2023-02-14T11:49:57;103171.50;;;12.30;59.99
74045;BME280;62389;51.412;5.436;2023-02-14T11:52:25;103160.03;;;12.40;59.62
74045;BME280;62389;51.412;5.436;2023-02-14T11:54:54;103152.84;;;12.50;59.04
74045;BME280;62389;51.412;5.436;2023-02-14T11:57:24;103146.59;;;12.58;58.99
74045;BME280;62389;51.412;5.436;2023-02-14T11:59:54;103148.25;;;12.65;59.04
74045;BME280;62389;51.412;5.436;2023-02-14T12:02:28;103147.28;;;12.71;57.97
74045;BME280;62389;51.412;5.436;2023-02-14T12:04:59;103141.16;;;12.72;57.07
74045;BME280;62389;51.412;5.436;2023-02-14T12:07:27;103127.09;;;12.76;59.53
74045;BME280;62389;51.412;5.436;2023-02-14T12:12:54;103129.22;;;13.04;58.84
74045;BME280;62389;51.412;5.436;2023-02-14T12:18:13;103119.69;;;13.47;56.85
74045;BME280;62389;51.412;5.436;2023-02-14T12:20:54;103114.03;;;13.67;55.77
74045;BME280;62389;51.412;5.436;2023-02-14T12:26:26;103107.06;;;13.65;55.01
74045;BME280;62389;51.412;5.436;2023-02-14T12:31:28;103093.75;;;13.72;54.67
74045;BME280;62389;51.412;5.436;2023-02-14T12:33:53;103089.09;;;13.87;54.29
74045;BME280;62389;51.412;5.436;2023-02-14T12:42:16;103078.47;;;14.66;55.36
74045;BME280;62389;51.412;5.436;2023-02-14T12:47:47;103080.81;;;14.78;51.81
74045;BME280;62389;51.412;5.436;2023-02-14T12:50:32;103070.06;;;14.52;50.34
74045;BME280;62389;51.412;5.436;2023-02-14T12:56:14;103067.88;;;14.32;52.38
74045;BME280;62389;51.412;5.436;2023-02-14T12:58:45;103060.00;;;14.30;52.10
74045;BME280;62389;51.412;5.436;2023-02-14T13:01:33;103054.69;;;14.33;54.16
74045;BME280;62389;51.412;5.436;2023-02-14T13:04:31;103053.09;;;14.63;54.71
74045;BME280;62389;51.412;5.436;2023-02-14T13:07:35;103055.38;;;14.77;53.28
74045;BME280;62389;51.412;5.436;2023-02-14T13:10:19;103047.25;;;14.85;52.31
74045;BME280;62389;51.412;5.436;2023-02-14T13:12:58;103042.97;;;15.13;52.14
74045;BME280;62389;51.412;5.436;2023-02-14T13:15:49;103039.50;;;15.42;50.99
74045;BME280;62389;51.412;5.436;2023-02-14T13:19:05;103037.13;;;15.64;49.89
74045;BME280;62389;51.412;5.436;2023-02-14T13:21:07;103030.72;;;15.73;50.40
74045;BME280;62389;51.412;5.436;2023-02-14T13:23:38;103030.59;;;15.77;49.08
74045;BME280;62389;51.412;5.436;2023-02-14T13:26:23;103022.88;;;15.70;51.10
74045;BME280;62389;51.412;5.436;2023-02-14T13:28:55;103020.25;;;15.70;49.44
74045;BME280;62389;51.412;5.436;2023-02-14T13:31:23;103025.19;;;16.09;46.68
74045;BME280;62389;51.412;5.436;2023-02-14T13:33:56;103023.84;;;17.25;47.37
74045;BME280;62389;51.412;5.436;2023-02-14T13:36:23;103013.97;;;19.02;43.36
74045;BME280;62389;51.412;5.436;2023-02-14T13:38:52;103007.56;;;20.20;40.95
74045;BME280;62389;51.412;5.436;2023-02-14T13:41:19;103000.41;;;21.23;37.92
74045;BME280;62389;51.412;5.436;2023-02-14T13:43:56;103005.81;;;22.32;35.59
74045;BME280;62389;51.412;5.436;2023-02-14T13:49:06;102999.72;;;23.45;33.22
74045;BME280;62389;51.412;5.436;2023-02-14T13:56:56;102985.75;;;21.79;33.21
74045;BME280;62389;51.412;5.436;2023-02-14T13:59:31;102988.38;;;20.49;37.31
74045;BME280;62389;51.412;5.436;2023-02-14T14:04:52;102990.25;;;18.58;39.59
74045;BME280;62389;51.412;5.436;2023-02-14T14:07:23;102979.34;;;18.03;41.57
74045;BME280;62389;51.412;5.436;2023-02-14T14:09:52;102986.22;;;17.40;42.32
74045;BME280;62389;51.412;5.436;2023-02-14T14:17:32;102982.81;;;15.85;44.71
74045;BME280;62389;51.412;5.436;2023-02-14T14:19:59;102983.03;;;15.49;45.53
74045;BME280;62389;51.412;5.436;2023-02-14T14:22:25;102982.84;;;15.26;46.82
74045;BME280;62389;51.412;5.436;2023-02-14T14:27:35;102986.47;;;14.92;47.30
74045;BME280;62389;51.412;5.436;2023-02-14T14:30:17;102983.25;;;14.81;48.20
74045;BME280;62389;51.412;5.436;2023-02-14T14:32:43;102979.41;;;14.60;48.86
74045;BME280;62389;51.412;5.436;2023-02-14T14:37:55;102977.41;;;14.34;50.07
74045;BME280;62389;51.412;5.436;2023-02-14T14:40:35;102965.09;;;14.36;50.14
74045;BME280;62389;51.412;5.436;2023-02-14T14:43:25;102961.63;;;14.34;49.08
74045;BME280;62389;51.412;5.436;2023-02-14T14:45:51;102961.84;;;14.25;49.27
74045;BME280;62389;51.412;5.436;2023-02-14T14:48:44;102969.91;;;14.19;49.58
74045;BME280;62389;51.412;5.436;2023-02-14T14:51:27;102967.38;;;14.16;48.88
74045;BME280;62389;51.412;5.436;2023-02-14T14:53:56;102965.81;;;14.07;49.33
74045;BME280;62389;51.412;5.436;2023-02-14T14:56:25;102964.22;;;14.02;51.57